Time;durP1;ratioP1;P1;durP2;ratioP2;P2;SDS_P1;SDS_P2;PMS_P1;PMS_P2;Temp;Humidity;BMP_temperature;BMP_pressure;BME280_temperature;BME280_humidity;BME280_pressure;Samples;Min_cycle;Max_cycle;Signal;HPM_P1;HPM_P2
2023/02/28 00:01:46;;;;;;;5.28;3.30;;;1.90;99.90;;;;;;4175173;28;20429;-68
2023/02/28 00:03:47;;;;;;;5.25;3.22;;;1.80;99.90;;;;;;4183706;28;21132;-67
2023/02/28 00:05:47;;;;;;;5.47;2.83;;;1.80;99.90;;;;;;4179766;28;20063;-67
2023/02/28 00:07:50;;;;;;;5.28;2.97;;;1.70;99.90;;;;;;4172283;28;20044;-68
2023/02/28 00:09:50;;;;;;;6.90;3.10;;;1.70;99.90;;;;;;4174149;28;20472;-67
2023/02/28 00:11:51;;;;;;;5.80;2.78;;;1.70;99.90;;;;;;4179535;28;20060;-67
2023/02/28 00:13:51;;;;;;;4.00;2.80;;;1.70;99.90;;;;;;4187288;28;20476;-67
2023/02/28 00:16:00;;;;;;;4.65;2.45;;;1.80;99.90;;;;;;4182652;28;20102;-67
2023/02/28 00:18:01;;;;;;;4.68;2.88;;;1.80;99.90;;;;;;4185054;28;20069;-67
2023/02/28 00:20:04;;;;;;;9.00;2.75;;;1.80;99.90;;;;;;4189684;28;20533;-69
2023/02/28 00:22:05;;;;;;;4.82;2.75;;;1.80;99.90;;;;;;4184109;28;20044;-68
2023/02/28 00:24:06;;;;;;;5.55;2.47;;;1.80;99.90;;;;;;4187487;28;20036;-67
2023/02/28 00:26:06;;;;;;;5.60;2.90;;;1.70;99.90;;;;;;4179194;28;20056;-67
2023/02/28 00:28:07;;;;;;;4.95;2.50;;;1.70;99.90;;;;;;4179873;28;20055;-67
2023/02/28 00:30:11;;;;;;;6.10;3.10;;;1.70;99.90;;;;;;4175012;28;20082;-68
2023/02/28 00:32:11;;;;;;;6.10;3.10;;;1.80;99.90;;;;;;4182263;28;20041;-68
2023/02/28 00:34:12;;;;;;;3.95;2.53;;;1.80;99.90;;;;;;4177675;28;20102;-68
2023/02/28 00:36:13;;;;;;;6.68;3.30;;;1.90;99.90;;;;;;4179345;28;20052;-68
2023/02/28 00:38:14;;;;;;;5.43;2.75;;;1.90;99.90;;;;;;4180618;28;20059;-68
2023/02/28 00:40:15;;;;;;;7.03;2.75;;;1.90;99.90;;;;;;4182739;28;20407;-68
2023/02/28 00:42:15;;;;;;;4.80;2.88;;;2.00;99.90;;;;;;4189369;28;20036;-68
2023/02/28 00:44:16;;;;;;;4.45;2.55;;;2.10;99.90;;;;;;4179532;28;20044;-67
2023/02/28 00:46:16;;;;;;;5.65;2.95;;;2.10;99.90;;;;;;4177554;28;20547;-68
2023/02/28 00:48:17;;;;;;;5.68;3.03;;;2.10;99.90;;;;;;4181025;28;20118;-68
2023/02/28 00:50:19;;;;;;;5.68;2.78;;;2.10;99.90;;;;;;4187216;28;20036;-68
2023/02/28 00:52:21;;;;;;;5.35;2.97;;;2.20;99.90;;;;;;4183597;28;20060;-68
2023/02/28 00:54:23;;;;;;;4.50;2.88;;;2.20;99.90;;;;;;4182575;28;20036;-66
2023/02/28 00:56:24;;;;;;;4.50;3.08;;;2.20;99.90;;;;;;4172039;28;20120;-68
2023/02/28 00:58:24;;;;;;;5.28;3.10;;;2.20;99.90;;;;;;4180874;28;20040;-67
2023/02/28 01:00:25;;;;;;;5.72;2.65;;;2.30;99.90;;;;;;4176551;28;21033;-68
2023/02/28 01:02:25;;;;;;;6.03;3.00;;;2.30;99.90;;;;;;4184950;28;20037;-67
2023/02/28 01:04:26;;;;;;;5.90;2.88;;;2.30;99.90;;;;;;4179343;28;20041;-67
2023/02/28 01:06:26;;;;;;;6.60;2.90;;;2.30;99.90;;;;;;4178854;28;20060;-67
2023/02/28 01:08:27;;;;;;;5.90;3.08;;;2.30;99.90;;;;;;4185183;28;20029;-67
2023/02/28 01:10:31;;;;;;;5.00;2.65;;;2.30;99.90;;;;;;4188508;28;20029;-67
2023/02/28 01:12:31;;;;;;;8.95;3.40;;;2.20;99.90;;;;;;4178276;28;20029;-67
2023/02/28 01:14:32;;;;;;;6.70;3.33;;;2.10;99.90;;;;;;4183173;28;20102;-67
2023/02/28 01:16:32;;;;;;;5.85;3.15;;;2.00;99.90;;;;;;4176960;28;20032;-67
2023/02/28 01:18:33;;;;;;;5.70;3.25;;;1.90;99.90;;;;;;4179482;28;20079;-67
2023/02/28 01:20:37;;;;;;;5.75;2.80;;;1.70;99.90;;;;;;4176022;28;20108;-67
2023/02/28 01:22:37;;;;;;;4.75;2.72;;;1.60;99.90;;;;;;4181047;28;20041;-67
2023/02/28 01:24:38;;;;;;;5.05;2.65;;;1.50;99.90;;;;;;4183660;28;20041;-67
2023/02/28 01:26:38;;;;;;;5.40;2.72;;;1.60;99.90;;;;;;4175480;28;20076;-68
2023/02/28 01:28:39;;;;;;;7.45;2.97;;;1.60;99.90;;;;;;4188012;28;20032;-67
2023/02/28 01:30:40;;;;;;;4.75;2.80;;;1.50;99.90;;;;;;4171835;28;20064;-67
2023/02/28 01:32:40;;;;;;;6.43;2.85;;;1.50;99.90;;;;;;4182028;28;20476;-67
2023/02/28 01:34:41;;;;;;;5.55;3.13;;;1.40;99.90;;;;;;4176503;28;20052;-67
2023/02/28 01:36:41;;;;;;;7.63;3.17;;;1.30;99.90;;;;;;4175864;28;20373;-67
2023/02/28 01:38:43;;;;;;;5.25;3.20;;;1.20;99.90;;;;;;4183431;28;20063;-67
2023/02/28 01:40:44;;;;;;;6.13;3.10;;;1.10;99.90;;;;;;4186305;28;20037;-67
2023/02/28 01:42:44;;;;;;;8.68;3.33;;;1.10;99.90;;;;;;4179922;28;20029;-67
2023/02/28 01:44:58;;;;;;;6.95;3.35;;;1.10;99.90;;;;;;4181956;28;20073;-67
2023/02/28 01:46:59;;;;;;;6.82;2.85;;;1.00;99.90;;;;;;4177395;28;20128;-66
2023/02/28 01:49:15;;;;;;;5.53;3.00;;;1.00;99.90;;;;;;4179853;28;20044;-66
2023/02/28 01:51:50;;;;;;;6.25;3.08;;;1.00;99.90;;;;;;4182264;28;20037;-67
2023/02/28 01:53:56;;;;;;;5.75;3.60;;;1.00;99.90;;;;;;4164795;28;20037;-67
2023/02/28 01:55:57;;;;;;;6.80;3.08;;;1.00;99.90;;;;;;4179243;28;20447;-69
2023/02/28 01:58:01;;;;;;;5.80;3.28;;;0.90;99.90;;;;;;4177830;28;20036;-67
2023/02/28 02:00:14;;;;;;;6.80;2.90;;;0.90;99.90;;;;;;4178546;28;20090;-67
2023/02/28 02:02:18;;;;;;;8.02;3.55;;;0.80;99.90;;;;;;4176898;28;20044;-67
2023/02/28 02:04:21;;;;;;;6.15;3.08;;;0.70;99.90;;;;;;4175074;28;20128;-67
2023/02/28 02:06:36;;;;;;;6.10;3.20;;;0.70;99.90;;;;;;4175955;28;20090;-67
2023/02/28 02:08:38;;;;;;;4.55;2.80;;;0.70;99.90;;;;;;4181972;28;20491;-67
2023/02/28 02:10:53;;;;;;;5.32;3.42;;;0.60;99.90;;;;;;4179309;28;20119;-67
2023/02/28 02:13:24;;;;;;;6.63;2.90;;;0.60;99.90;;;;;;4182073;28;20124;-66
2023/02/28 02:15:54;;;;;;;7.25;3.30;;;0.50;99.90;;;;;;4171647;28;20047;-67
2023/02/28 02:18:01;;;;;;;8.07;3.80;;;0.50;99.90;;;;;;4174419;28;20068;-67
2023/02/28 02:20:19;;;;;;;6.00;3.50;;;0.40;99.90;;;;;;4187968;28;20033;-67
2023/02/28 02:22:49;;;;;;;7.03;3.40;;;0.40;99.90;;;;;;4177384;28;20047;-67
2023/02/28 02:25:54;;;;;;;4.95;3.20;;;0.40;99.90;;;;;;4183622;28;20405;-67
2023/02/28 02:28:30;;;;;;;6.60;3.17;;;0.40;99.90;;;;;;4118524;28;20052;-67
2023/02/28 02:30:37;;;;;;;8.07;3.78;;;0.30;99.90;;;;;;4176979;28;20040;-67
2023/02/28 02:32:43;;;;;;;6.13;2.88;;;0.30;99.90;;;;;;4181410;28;20048;-67
2023/02/28 02:35:02;;;;;;;5.43;3.10;;;0.30;99.90;;;;;;4175529;28;20052;-67
2023/02/28 02:37:14;;;;;;;5.88;2.90;;;0.30;99.90;;;;;;4174407;28;20029;-67
2023/02/28 02:39:38;;;;;;;5.63;3.00;;;0.30;99.90;;;;;;4179364;28;20037;-67
2023/02/28 02:41:58;;;;;;;4.68;2.95;;;0.40;99.90;;;;;;4183515;28;20037;-67
2023/02/28 02:44:19;;;;;;;5.28;2.78;;;0.50;99.90;;;;;;4177115;28;20120;-66
2023/02/28 02:46:26;;;;;;;4.82;2.70;;;0.50;99.90;;;;;;4177171;28;20372;-67
2023/02/28 02:48:30;;;;;;;6.93;2.75;;;0.50;99.90;;;;;;4173564;28;20068;-66
2023/02/28 02:50:45;;;;;;;5.13;3.00;;;0.60;99.90;;;;;;4172577;28;20040;-67
2023/02/28 02:52:51;;;;;;;5.72;2.63;;;0.60;99.90;;;;;;4169842;28;20182;-67
2023/02/28 02:54:56;;;;;;;5.03;2.75;;;0.70;99.90;;;;;;4170413;28;20408;-67
2023/02/28 02:56:59;;;;;;;5.82;2.70;;;0.80;99.90;;;;;;4173740;28;20024;-66
2023/02/28 02:59:04;;;;;;;3.70;2.28;;;0.80;99.90;;;;;;4179284;28;20078;-66
2023/02/28 03:01:05;;;;;;;5.43;2.65;;;1.00;99.90;;;;;;4174164;28;20037;-67
2023/02/28 03:03:09;;;;;;;4.30;2.78;;;1.00;99.90;;;;;;4191527;28;20041;-67
2023/02/28 03:05:23;;;;;;;4.32;2.70;;;1.10;99.90;;;;;;4170608;28;20454;-67
2023/02/28 03:07:25;;;;;;;4.25;2.40;;;1.10;99.90;;;;;;4177126;28;20032;-67
2023/02/28 03:09:26;;;;;;;;;;;1.20;99.90;;;;;;4182453;28;20074;-66
2023/02/28 03:11:28;;;;;;;4.60;2.67;;;1.20;99.90;;;;;;4178855;28;19913;-67
2023/02/28 03:13:52;;;;;;;6.47;2.38;;;1.30;99.90;;;;;;4181477;28;20033;-66
2023/02/28 03:16:17;;;;;;;6.28;2.60;;;1.30;99.90;;;;;;4182553;28;20037;-67
2023/02/28 03:18:40;;;;;;;5.55;3.42;;;1.40;99.90;;;;;;4176322;28;20464;-67
2023/02/28 03:21:10;;;;;;;4.85;3.00;;;1.40;99.90;;;;;;4179259;28;20037;-67
2023/02/28 03:23:21;;;;;;;5.45;3.03;;;1.50;99.90;;;;;;4175988;28;20032;-67
2023/02/28 03:25:43;;;;;;;5.57;3.17;;;1.50;99.90;;;;;;4174825;28;20037;-67
2023/02/28 03:27:56;;;;;;;5.00;2.88;;;1.60;99.90;;;;;;4183873;28;20052;-67
2023/02/28 03:30:04;;;;;;;4.78;2.70;;;1.60;99.90;;;;;;4178472;28;20037;-67
2023/02/28 03:32:26;;;;;;;6.18;2.83;;;1.60;99.90;;;;;;4180110;28;20095;-67
2023/02/28 03:34:34;;;;;;;4.75;2.90;;;1.60;99.90;;;;;;4175149;28;20033;-67
2023/02/28 03:36:50;;;;;;;8.25;2.70;;;1.60;99.90;;;;;;4180333;28;20072;-67
2023/02/28 03:39:02;;;;;;;6.68;3.20;;;1.50;99.90;;;;;;4183057;28;20041;-67
2023/02/28 03:41:25;;;;;;;6.10;3.25;;;1.40;99.90;;;;;;4177697;28;20047;-67
2023/02/28 03:43:31;;;;;;;7.97;2.97;;;1.10;99.90;;;;;;4170867;28;20045;-67
2023/02/28 03:45:36;;;;;;;8.45;2.85;;;1.00;99.90;;;;;;4172531;28;20025;-66
2023/02/28 03:47:57;;;;;;;6.05;3.38;;;0.90;99.90;;;;;;4183914;28;20044;-67
2023/02/28 03:50:24;;;;;;;5.55;2.85;;;0.90;99.90;;;;;;4181481;28;20121;-67
2023/02/28 03:52:30;;;;;;;5.45;2.47;;;0.90;99.90;;;;;;4176678;28;20065;-67
2023/02/28 03:54:36;;;;;;;5.22;2.85;;;0.90;99.90;;;;;;4179607;28;20041;-67
2023/02/28 03:56:48;;;;;;;5.35;3.13;;;0.80;99.90;;;;;;4177283;28;20095;-67
2023/02/28 03:59:00;;;;;;;6.15;3.05;;;0.70;99.90;;;;;;4178903;28;20122;-67
2023/02/28 04:01:11;;;;;;;10.38;3.25;;;0.70;99.90;;;;;;4177052;28;20117;-66
2023/02/28 04:03:11;;;;;;;4.18;2.33;;;0.60;99.90;;;;;;4187056;28;20041;-67
2023/02/28 04:05:12;;;;;;;5.07;2.80;;;0.60;99.90;;;;;;4172920;28;20044;-68
2023/02/28 04:07:12;;;;;;;6.88;2.70;;;0.60;99.90;;;;;;4180747;28;20056;-67
2023/02/28 04:09:14;;;;;;;6.78;3.33;;;0.60;99.90;;;;;;4176303;28;20037;-67
2023/02/28 04:11:23;;;;;;;5.32;2.78;;;0.50;99.90;;;;;;4192400;28;20506;-67
2023/02/28 04:13:24;;;;;;;6.50;3.03;;;0.40;99.90;;;;;;4185364;28;20101;-67
2023/02/28 04:15:27;;;;;;;8.40;3.00;;;0.40;99.90;;;;;;4177980;28;20049;-67
2023/02/28 04:17:27;;;;;;;5.40;2.53;;;0.40;99.90;;;;;;4185222;28;20111;-67
2023/02/28 04:19:28;;;;;;;4.80;2.47;;;0.50;99.90;;;;;;4182064;28;20029;-66
2023/02/28 04:21:29;;;;;;;7.03;2.85;;;0.40;99.90;;;;;;4171840;28;20142;-67
2023/02/28 04:23:31;;;;;;;6.20;3.40;;;0.40;99.90;;;;;;4183170;28;20527;-67
2023/02/28 04:25:31;;;;;;;7.07;3.30;;;0.40;99.90;;;;;;4175595;28;20306;-66
2023/02/28 04:27:32;;;;;;;5.95;2.90;;;0.20;99.90;;;;;;4179852;28;20052;-67
2023/02/28 04:29:33;;;;;;;4.93;2.72;;;0.20;99.90;;;;;;4184138;28;20076;-66
2023/02/28 04:31:33;;;;;;;5.95;3.00;;;0.10;99.90;;;;;;4180811;28;20045;-67
2023/02/28 04:33:34;;;;;;;4.78;2.65;;;0.10;99.90;;;;;;4178657;28;20045;-67
2023/02/28 04:35:34;;;;;;;4.57;2.45;;;0.10;99.90;;;;;;4176788;28;20045;-67
2023/02/28 04:37:36;;;;;;;5.97;2.72;;;0.10;99.90;;;;;;4174558;28;20068;-67
2023/02/28 04:39:37;;;;;;;5.23;2.67;;;0.00;99.90;;;;;;4187480;28;20036;-67
2023/02/28 04:41:38;;;;;;;7.22;3.13;;;0.00;99.90;;;;;;4178070;28;20810;-67
2023/02/28 04:43:38;;;;;;;4.30;2.72;;;-0.10;99.90;;;;;;4182548;28;20064;-67
2023/02/28 04:45:39;;;;;;;4.15;2.45;;;-0.10;99.90;;;;;;4175979;28;20037;-67
2023/02/28 04:47:39;;;;;;;3.60;2.13;;;-0.10;99.90;;;;;;4176295;28;20041;-67
2023/02/28 04:49:41;;;;;;;5.03;2.55;;;-0.10;99.90;;;;;;4184920;28;20437;-67
2023/02/28 04:51:42;;;;;;;5.07;2.97;;;0.00;99.90;;;;;;4175431;28;20058;-67
2023/02/28 04:53:43;;;;;;;4.63;2.67;;;0.00;99.90;;;;;;4177706;28;20127;-67
2023/02/28 04:55:44;;;;;;;5.60;2.58;;;0.00;99.90;;;;;;4181959;28;20064;-67
2023/02/28 04:57:45;;;;;;;4.50;2.60;;;0.10;99.90;;;;;;4176196;28;20104;-67
2023/02/28 04:59:45;;;;;;;6.22;3.05;;;0.00;99.90;;;;;;4185587;28;20091;-67
2023/02/28 05:01:47;;;;;;;6.03;2.83;;;0.00;99.90;;;;;;4181447;28;20053;-67
2023/02/28 05:03:49;;;;;;;5.57;3.20;;;0.00;99.90;;;;;;4185030;28;20051;-67
2023/02/28 05:05:49;;;;;;;5.18;2.67;;;0.00;99.90;;;;;;4187921;28;20055;-67
2023/02/28 05:07:50;;;;;;;5.85;3.00;;;-0.10;99.90;;;;;;4178584;28;20061;-67
2023/02/28 05:09:51;;;;;;;4.45;2.55;;;-0.10;99.90;;;;;;4184564;28;20037;-67
2023/02/28 05:11:51;;;;;;;5.28;2.38;;;-0.10;99.90;;;;;;4180644;28;20044;-67
2023/02/28 05:13:53;;;;;;;4.68;2.60;;;0.00;99.90;;;;;;4185952;28;20036;-67
2023/02/28 05:15:55;;;;;;;5.78;2.90;;;-0.10;99.90;;;;;;4177670;28;20455;-67
2023/02/28 05:17:55;;;;;;;4.78;2.60;;;-0.20;99.90;;;;;;4176885;28;20036;-67
2023/02/28 05:19:56;;;;;;;4.32;2.47;;;-0.20;99.90;;;;;;4177148;28;20032;-67
2023/02/28 05:21:57;;;;;;;4.40;2.65;;;-0.40;99.90;;;;;;4178751;28;20040;-67
2023/02/28 05:24:04;;;;;;;6.00;2.70;;;-0.50;99.90;;;;;;4188474;28;20033;-67
2023/02/28 05:26:04;;;;;;;5.40;2.30;;;-0.50;99.90;;;;;;4179945;28;20120;-67
2023/02/28 05:28:05;;;;;;;4.13;2.78;;;-0.60;99.90;;;;;;4177366;28;20122;-67
2023/02/28 05:30:10;;;;;;;8.15;3.30;;;-0.60;99.90;;;;;;4180185;28;20029;-67
2023/02/28 05:32:11;;;;;;;4.35;2.58;;;-0.60;99.90;;;;;;4175698;28;20041;-67
2023/02/28 05:34:12;;;;;;;4.97;2.60;;;-0.70;99.90;;;;;;4187556;28;20028;-67
2023/02/28 05:36:13;;;;;;;6.47;3.00;;;-0.80;99.90;;;;;;4183797;28;20495;-67
2023/02/28 05:38:14;;;;;;;5.57;2.55;;;-0.90;99.90;;;;;;4180416;28;20062;-67
2023/02/28 05:40:15;;;;;;;7.13;2.90;;;-0.90;99.90;;;;;;4184456;28;20119;-68
2023/02/28 05:42:15;;;;;;;5.82;3.00;;;-1.00;99.90;;;;;;4177653;28;20586;-67
2023/02/28 05:44:16;;;;;;;5.80;2.70;;;-1.00;99.90;;;;;;4182994;28;20112;-67
2023/02/28 05:46:17;;;;;;;5.47;2.80;;;-1.00;99.90;;;;;;4176944;28;20049;-67
2023/02/28 05:48:18;;;;;;;6.00;2.88;;;-1.10;99.90;;;;;;4175308;28;22983;-67
2023/02/28 05:50:18;;;;;;;5.30;2.53;;;-1.00;99.90;;;;;;4182376;28;20182;-68
2023/02/28 05:52:19;;;;;;;4.85;2.75;;;-1.00;99.90;;;;;;4176635;28;20542;-67
2023/02/28 05:54:19;;;;;;;6.38;3.13;;;-1.00;99.90;;;;;;4182213;28;20068;-67
2023/02/28 05:56:20;;;;;;;5.88;2.78;;;-1.00;99.90;;;;;;4178111;28;20053;-67
2023/02/28 05:58:21;;;;;;;4.30;2.45;;;-1.00;99.90;;;;;;4183643;28;20434;-67
2023/02/28 06:00:22;;;;;;;5.57;2.65;;;-1.00;99.90;;;;;;4179396;28;20041;-68
2023/02/28 06:02:23;;;;;;;5.35;2.58;;;-1.00;99.90;;;;;;4182299;28;20040;-67
2023/02/28 06:04:23;;;;;;;5.93;2.50;;;-1.00;99.90;;;;;;4186222;28;20040;-67
2023/02/28 06:06:24;;;;;;;5.63;2.40;;;-0.90;99.90;;;;;;4176484;28;20044;-67
2023/02/28 06:08:25;;;;;;;5.63;2.38;;;-0.90;99.90;;;;;;4184838;28;20515;-67
2023/02/28 06:10:25;;;;;;;5.30;2.58;;;-0.90;99.90;;;;;;4184763;28;20029;-67
2023/02/28 06:12:26;;;;;;;7.38;2.60;;;-0.90;99.90;;;;;;4179468;28;20033;-67
2023/02/28 06:14:27;;;;;;;6.03;2.75;;;-0.90;99.90;;;;;;4186940;28;20065;-67
2023/02/28 06:16:29;;;;;;;3.65;2.10;;;-0.90;99.90;;;;;;4177774;28;20033;-67
2023/02/28 06:18:29;;;;;;;3.92;2.47;;;-0.80;99.90;;;;;;4179203;28;20043;-67
2023/02/28 06:20:30;;;;;;;6.40;2.63;;;-0.90;99.90;;;;;;4179873;28;21140;-66
2023/02/28 06:22:31;;;;;;;6.00;2.63;;;-0.90;99.90;;;;;;4175060;28;20075;-66
2023/02/28 06:24:32;;;;;;;3.95;2.30;;;-0.80;99.90;;;;;;4173130;28;20042;-66
2023/02/28 06:26:33;;;;;;;3.50;2.35;;;-0.80;99.90;;;;;;4171073;28;20618;-67
2023/02/28 06:28:33;;;;;;;5.07;2.83;;;-0.80;99.90;;;;;;4171100;28;20046;-66
2023/02/28 06:30:34;;;;;;;3.47;2.15;;;-0.90;99.90;;;;;;4168273;28;20048;-66
2023/02/28 06:32:35;;;;;;;3.88;2.13;;;-0.80;99.90;;;;;;4176678;28;20044;-66
2023/02/28 06:34:36;;;;;;;6.03;2.33;;;-0.90;99.90;;;;;;4173090;28;20397;-66
2023/02/28 06:36:37;;;;;;;3.92;2.20;;;-0.90;99.90;;;;;;4172758;28;20276;-67
2023/02/28 06:38:38;;;;;;;4.10;2.70;;;-0.80;99.90;;;;;;4177250;28;20460;-67
2023/02/28 06:40:39;;;;;;;6.05;2.33;;;-0.80;99.90;;;;;;4171502;28;20035;-67
2023/02/28 06:42:39;;;;;;;4.65;2.17;;;-0.80;99.90;;;;;;4180765;28;20040;-67
2023/02/28 06:44:40;;;;;;;5.82;2.45;;;-0.70;99.90;;;;;;4175951;28;20037;-67
2023/02/28 06:46:42;;;;;;;5.60;2.40;;;-0.80;99.90;;;;;;4169425;28;20465;-67
2023/02/28 06:48:44;;;;;;;5.63;2.08;;;-0.70;99.90;;;;;;4180330;28;20423;-67
2023/02/28 06:50:45;;;;;;;5.18;2.30;;;-0.70;99.90;;;;;;4172422;28;20037;-67
2023/02/28 06:52:45;;;;;;;5.18;2.83;;;-0.80;99.90;;;;;;4182681;28;20056;-68
2023/02/28 06:54:46;;;;;;;5.30;2.55;;;-0.80;99.90;;;;;;4171510;28;20471;-68
2023/02/28 06:56:47;;;;;;;5.80;2.67;;;-0.70;99.90;;;;;;4175836;28;20114;-68
2023/02/28 06:58:52;;;;;;;5.60;2.47;;;-0.70;99.90;;;;;;4180653;28;20036;-68
2023/02/28 07:00:53;;;;;;;4.72;2.55;;;-0.70;99.90;;;;;;4164882;28;20064;-67
2023/02/28 07:02:54;;;;;;;5.30;2.40;;;-0.60;99.90;;;;;;4166761;28;20029;-68
2023/02/28 07:04:55;;;;;;;4.60;2.50;;;-0.50;99.90;;;;;;4166096;28;20037;-68
2023/02/28 07:06:56;;;;;;;4.43;2.50;;;-0.30;99.90;;;;;;4169459;28;20314;-68
2023/02/28 07:08:58;;;;;;;4.60;2.58;;;-0.20;99.90;;;;;;4167913;28;20481;-68
2023/02/28 07:10:58;;;;;;;5.22;2.70;;;-0.10;99.90;;;;;;4168863;28;20385;-68
2023/02/28 07:13:00;;;;;;;5.10;2.90;;;0.00;99.90;;;;;;4168650;28;20041;-68
2023/02/28 07:15:01;;;;;;;4.20;2.63;;;0.10;99.90;;;;;;4165400;28;20043;-67
2023/02/28 07:17:01;;;;;;;6.15;3.17;;;0.20;99.90;;;;;;4167981;28;20032;-67
2023/02/28 07:19:02;;;;;;;8.45;2.70;;;0.20;99.90;;;;;;4167063;28;20021;-68
2023/02/28 07:21:04;;;;;;;3.53;2.35;;;0.20;99.90;;;;;;4166189;28;20080;-69
2023/02/28 07:23:05;;;;;;;;;;;0.30;99.90;;;;;;4166949;28;20033;-68
2023/02/28 07:25:06;;;;;;;8.43;3.03;;;0.40;99.90;;;;;;4165814;28;20000;-68
2023/02/28 07:27:06;;;;;;;5.75;2.83;;;0.40;99.90;;;;;;4165987;28;20057;-68
2023/02/28 07:29:07;;;;;;;4.80;2.88;;;0.70;99.90;;;;;;4167029;28;20384;-68
2023/02/28 07:31:09;;;;;;;4.40;2.45;;;0.80;99.90;;;;;;4161894;28;20073;-68
2023/02/28 07:33:10;;;;;;;5.78;3.33;;;0.90;99.90;;;;;;4166422;28;20044;-68
2023/02/28 07:35:11;;;;;;;5.50;2.90;;;1.10;99.90;;;;;;4167384;28;20041;-69
2023/02/28 07:37:12;;;;;;;8.68;2.70;;;1.20;99.90;;;;;;4168902;28;20041;-69
2023/02/28 07:39:12;;;;;;;4.38;2.63;;;1.40;99.90;;;;;;4165767;28;20472;-68
2023/02/28 07:41:13;;;;;;;6.22;2.53;;;1.60;99.90;;;;;;4165585;28;20030;-69
2023/02/28 07:43:14;;;;;;;5.07;2.90;;;1.60;99.90;;;;;;4169932;28;20484;-69
2023/02/28 07:45:14;;;;;;;4.93;2.40;;;1.80;99.90;;;;;;4167563;28;20041;-68
2023/02/28 07:47:15;;;;;;;5.00;2.83;;;1.90;99.90;;;;;;4162773;28;20037;-68
2023/02/28 07:49:16;;;;;;;5.15;2.67;;;2.00;99.90;;;;;;4166095;28;20068;-68
2023/02/28 07:51:16;;;;;;;6.20;2.65;;;2.20;99.90;;;;;;4163105;28;20971;-73
2023/02/28 07:53:17;;;;;;;9.60;2.72;;;2.30;99.90;;;;;;4166100;28;20038;-73
2023/02/28 07:55:18;;;;;;;7.32;2.90;;;2.50;99.90;;;;;;4167553;28;20056;-72
2023/02/28 07:57:18;;;;;;;7.65;2.85;;;2.60;99.90;;;;;;4163911;28;20025;-69
2023/02/28 07:59:19;;;;;;;6.05;2.30;;;2.60;99.90;;;;;;4163689;28;20040;-69
2023/02/28 08:01:19;;;;;;;5.00;2.58;;;2.70;99.90;;;;;;4160796;28;20481;-68
2023/02/28 08:03:21;;;;;;;6.55;2.65;;;2.90;99.90;;;;;;4164358;28;20072;-68
2023/02/28 08:05:22;;;;;;;6.37;2.60;;;3.00;99.90;;;;;;4164007;28;20088;-69
2023/02/28 08:07:22;;;;;;;6.97;2.42;;;3.20;99.90;;;;;;4167184;28;20268;-69
2023/02/28 08:09:23;;;;;;;5.00;2.30;;;3.20;99.90;;;;;;4167230;28;20049;-71
2023/02/28 08:11:24;;;;;;;4.43;2.40;;;3.40;99.90;;;;;;4163708;28;20514;-69
2023/02/28 08:13:24;;;;;;;4.78;2.25;;;3.60;99.90;;;;;;4166167;28;20094;-69
2023/02/28 08:15:25;;;;;;;7.85;2.45;;;3.80;99.90;;;;;;4162263;28;20522;-69
2023/02/28 08:17:26;;;;;;;3.65;2.38;;;4.20;99.90;;;;;;4164367;28;20545;-69
2023/02/28 08:19:26;;;;;;;3.55;2.40;;;4.40;99.90;;;;;;4167661;28;20040;-69
2023/02/28 08:21:27;;;;;;;5.80;2.95;;;4.50;99.90;;;;;;4163579;28;20052;-69
2023/02/28 08:23:28;;;;;;;7.40;2.75;;;4.70;99.90;;;;;;4164718;28;20102;-68
2023/02/28 08:25:28;;;;;;;4.97;2.20;;;4.70;99.90;;;;;;4164304;28;20061;-69
2023/02/28 08:27:29;;;;;;;5.00;2.40;;;4.90;99.90;;;;;;4167288;28;20041;-69
2023/02/28 08:29:30;;;;;;;4.20;2.47;;;5.20;99.90;;;;;;4164985;28;20045;-70
2023/02/28 08:31:30;;;;;;;7.10;2.25;;;5.30;99.90;;;;;;4167978;28;20040;-68
2023/02/28 08:33:31;;;;;;;5.20;2.70;;;5.50;99.90;;;;;;4166115;28;20412;-69
2023/02/28 08:35:31;;;;;;;4.03;2.33;;;5.70;99.90;;;;;;4167290;28;20069;-69
2023/02/28 08:37:32;;;;;;;5.18;2.80;;;6.00;99.90;;;;;;4166054;28;20048;-68
2023/02/28 08:39:36;;;;;;;7.35;2.67;;;5.80;99.60;;;;;;4165517;28;20033;-69
2023/02/28 08:41:37;;;;;;;3.88;2.38;;;5.90;99.00;;;;;;4166758;28;20037;-70
2023/02/28 08:43:38;;;;;;;5.45;2.42;;;5.80;98.00;;;;;;4169029;28;20488;-69
2023/02/28 08:45:39;;;;;;;4.88;2.53;;;5.90;98.80;;;;;;4166290;28;20045;-68
2023/02/28 08:47:40;;;;;;;4.10;2.33;;;5.90;95.40;;;;;;4167698;28;20045;-68
2023/02/28 08:49:41;;;;;;;4.15;2.22;;;5.80;96.50;;;;;;4165282;28;20038;-68
2023/02/28 08:51:41;;;;;;;4.28;2.25;;;5.80;95.60;;;;;;4167397;28;20798;-69
2023/02/28 08:53:42;;;;;;;3.13;1.98;;;6.00;96.50;;;;;;4168694;28;20416;-69
2023/02/28 08:55:42;;;;;;;3.85;2.25;;;5.60;95.00;;;;;;4169678;28;20044;-68
2023/02/28 08:57:43;;;;;;;4.60;1.98;;;5.80;94.90;;;;;;4171652;28;20563;-69
2023/02/28 08:59:44;;;;;;;3.97;1.98;;;6.00;94.70;;;;;;4170429;28;20595;-68
2023/02/28 09:01:44;;;;;;;4.00;2.00;;;6.00;93.70;;;;;;4167981;28;20044;-69
2023/02/28 09:03:46;;;;;;;3.03;1.70;;;5.80;91.70;;;;;;4170807;28;20510;-69
2023/02/28 09:05:58;;;;;;;4.13;2.00;;;5.50;91.40;;;;;;4167124;28;20127;-69
2023/02/28 09:07:58;;;;;;;4.50;2.08;;;5.70;91.40;;;;;;4171447;28;20276;-68
2023/02/28 09:09:59;;;;;;;4.05;2.00;;;5.60;88.40;;;;;;4168963;28;20071;-68
2023/02/28 09:11:59;;;;;;;4.85;2.30;;;5.70;90.50;;;;;;4169601;28;20029;-68
2023/02/28 09:14:03;;;;;;;5.53;2.38;;;5.70;91.30;;;;;;4172095;28;20037;-68
2023/02/28 09:16:05;;;;;;;3.90;2.03;;;5.50;89.50;;;;;;4167820;28;20422;-67
2023/02/28 09:18:06;;;;;;;;;;;5.60;90.80;;;;;;4172445;28;20403;-68
2023/02/28 09:20:07;;;;;;;4.95;2.28;;;5.50;86.70;;;;;;4165223;28;19910;-69
2023/02/28 09:22:08;;;;;;;4.28;1.70;;;5.60;85.10;;;;;;4167729;28;20033;-68
2023/02/28 09:24:11;;;;;;;5.60;2.00;;;5.90;91.30;;;;;;4167653;28;20501;-68
2023/02/28 09:26:17;;;;;;;4.75;1.63;;;5.90;86.40;;;;;;4165471;28;20436;-68
2023/02/28 09:28:18;;;;;;;3.65;2.08;;;6.00;84.50;;;;;;4168611;28;20039;-69
2023/02/28 09:30:19;;;;;;;3.60;2.10;;;6.10;84.70;;;;;;4168007;28;20044;-68
2023/02/28 09:32:19;;;;;;;4.40;2.05;;;5.60;86.50;;;;;;4169190;28;20392;-68
2023/02/28 09:34:20;;;;;;;5.13;2.20;;;5.60;85.70;;;;;;4170041;28;20187;-68
2023/02/28 09:36:22;;;;;;;5.28;2.10;;;5.30;85.10;;;;;;4168590;28;20053;-68
2023/02/28 09:38:23;;;;;;;6.40;2.15;;;5.50;86.50;;;;;;4168790;28;20396;-69
2023/02/28 09:40:25;;;;;;;3.38;1.75;;;5.30;89.20;;;;;;4166167;28;20074;-68
2023/02/28 09:42:34;;;;;;;4.20;1.67;;;5.40;85.20;;;;;;4167230;28;20404;-68
2023/02/28 09:44:39;;;;;;;5.85;2.50;;;5.50;85.10;;;;;;4167869;28;20187;-68
2023/02/28 09:46:48;;;;;;;4.10;1.77;;;5.50;86.40;;;;;;4168664;28;20079;-68
2023/02/28 09:48:50;;;;;;;3.55;2.10;;;5.70;86.60;;;;;;4167558;28;20099;-68
2023/02/28 09:50:55;;;;;;;4.25;1.80;;;5.60;85.80;;;;;;4168076;28;20032;-69
2023/02/28 09:52:56;;;;;;;3.22;1.60;;;5.40;82.90;;;;;;4168897;28;20095;-68
2023/02/28 09:55:20;;;;;;;5.18;1.90;;;5.30;82.60;;;;;;4165350;28;20048;-68
2023/02/28 09:57:35;;;;;;;3.53;1.52;;;5.30;82.10;;;;;;4169185;28;20082;-68
2023/02/28 09:59:44;;;;;;;5.30;1.70;;;5.40;86.30;;;;;;4165451;28;20040;-68
2023/02/28 10:01:53;;;;;;;4.20;1.60;;;5.70;88.00;;;;;;4166020;28;20034;-69
2023/02/28 10:04:08;;;;;;;3.28;1.40;;;5.70;80.60;;;;;;4167949;28;20171;-69
2023/02/28 10:06:21;;;;;;;3.03;1.63;;;5.90;86.30;;;;;;4169977;28;20025;-68
2023/02/28 10:08:52;;;;;;;4.43;1.60;;;5.80;79.50;;;;;;4169325;28;20038;-69
2023/02/28 10:11:06;;;;;;;2.30;1.25;;;6.10;81.30;;;;;;4166449;28;20527;-69
2023/02/28 10:13:45;;;;;;;3.08;1.45;;;6.20;82.90;;;;;;4166943;28;20037;-69
2023/02/28 10:15:48;;;;;;;2.50;1.40;;;6.50;85.50;;;;;;4163797;28;20128;-68
2023/02/28 10:17:54;;;;;;;3.92;1.58;;;6.70;82.70;;;;;;4169022;28;20041;-68
2023/02/28 10:20:12;;;;;;;4.18;1.67;;;6.60;77.30;;;;;;4165888;28;20044;-68
2023/02/28 10:22:33;;;;;;;4.20;1.63;;;6.60;77.10;;;;;;4166844;28;20088;-68
2023/02/28 10:24:45;;;;;;;3.03;1.10;;;6.50;77.50;;;;;;4169463;28;20484;-68
2023/02/28 10:26:48;;;;;;;3.05;1.42;;;6.60;76.70;;;;;;4167316;28;20053;-69
2023/02/28 10:28:48;;;;;;;3.78;1.75;;;6.80;81.30;;;;;;4168623;28;20476;-69
2023/02/28 10:30:52;;;;;;;2.25;1.30;;;6.70;74.60;;;;;;4168733;28;20132;-68
2023/02/28 10:32:54;;;;;;;2.28;1.38;;;6.70;76.60;;;;;;4164839;28;20037;-68
2023/02/28 10:35:11;;;;;;;4.03;1.50;;;6.50;75.50;;;;;;4168208;28;21004;-68
2023/02/28 10:37:12;;;;;;;2.47;1.50;;;6.50;76.40;;;;;;4167593;28;20847;-68
2023/02/28 10:39:38;;;;;;;1.80;1.27;;;6.60;77.40;;;;;;4165877;28;20083;-68
2023/02/28 10:41:42;;;;;;;3.00;1.85;;;6.60;74.40;;;;;;4163752;28;20037;-68
2023/02/28 10:43:47;;;;;;;5.35;1.90;;;6.40;74.60;;;;;;4168528;28;20483;-68
2023/02/28 10:46:08;;;;;;;2.83;1.45;;;6.40;75.60;;;;;;4167713;28;20513;-68
2023/02/28 10:48:15;;;;;;;3.70;1.55;;;6.30;79.80;;;;;;4166077;28;20048;-68
2023/02/28 10:50:37;;;;;;;2.65;1.50;;;6.40;75.30;;;;;;4166807;28;20123;-69
2023/02/28 10:52:40;;;;;;;1.98;1.20;;;6.40;74.30;;;;;;4166564;28;20431;-68
2023/02/28 10:54:41;;;;;;;2.20;1.35;;;6.30;74.30;;;;;;4167005;28;20075;-68
2023/02/28 10:56:42;;;;;;;3.47;1.75;;;6.40;76.10;;;;;;4168578;28;20090;-68